Latest Weather Observations for Williamtown

IDN60901

Issued at 7:02 am EDT Thursday 28 October 2021 (issued every 10 minutes, with the page automatically refreshed every 10 minutes)

About weather observations | Map of Sydney area stations | Latest observations for Sydney area | Other Formats
Station Details ID: 061078 Name: WILLIAMTOWN RAAF Lat: -32.79 Lon: 151.84 Height: 7.5 m
Data from the previous 72 hours. | See also: Recent months at Williamtown
Date/Time
EDT
Temp
°C
App
Temp
°C
Dew
Point
°C
Rel
Hum
%
Delta-T
°C
Wind Press
QNH
hPa
Press
MSL
hPa
Rain since
9am
mm
Dir  Spd
km/h
Gust
km/h
Spd
kts
Gust
kts
28/07:00am 15.7 15.4 15.4 98 0.2 WNW 11 13 6 7 1012.5 1012.4 0.0
28/06:30am 14.6 14.6 14.1 97 0.3 WNW 7 7 4 4 1012.3 1012.2 0.0
28/06:00am 14.6 14.6 14.3 98 0.2 NW 7 9 4 5 1012.2 1012.1 0.0
28/05:30am 14.4 14.3 13.8 96 0.3 NW 7 9 4 5 1012.1 1012.0 0.0
28/05:00am 15.3 16.8 14.7 96 0.3 CALM 0 0 0 0 1011.8 1011.7 0.0
28/04:30am 15.8 16.4 15.3 97 0.3 N 6 7 3 4 1011.9 1011.8 0.0
28/04:00am 15.6 15.9 15.1 97 0.3 WNW 7 7 4 4 1012.1 1012.0 0.0
28/03:30am 15.8 16.2 15.3 97 0.3 W 7 11 4 6 1012.4 1012.3 0.0
28/03:00am 15.4 16.4 14.4 94 0.6 NNW 2 6 1 3 1012.4 1012.3 0.0
28/02:30am 16.4 18.4 15.9 97 0.3 CALM 0 0 0 0 1012.7 1012.6 0.0
28/02:00am 16.2 17.9 15.2 94 0.6 CALM 0 0 0 0 1013.1 1013.0 0.0
28/01:30am 16.7 17.7 15.4 92 0.8 NE 4 7 2 4 1013.5 1013.4 0.0
28/01:00am 17.4 19.6 16.4 94 0.6 CALM 0 0 0 0 1014.0 1013.9 0.0
28/12:30am 16.7 16.8 15.6 93 0.6 WSW 9 11 5 6 1014.7 1014.6 0.0
28/12:00am 18.8 20.7 16.8 88 1.2 NNW 2 7 1 4 1014.7 1014.6 0.0
 
Date/Time
EDT
Temp
°C
App
Temp
°C
Dew
Point
°C
Rel
Hum
%
Delta-T
°C
Wind Press
QNH
hPa
Press
MSL
hPa
Rain since
9am
mm
Dir  Spd
km/h
Gust
km/h
Spd
kts
Gust
kts
27/11:30pm 19.2 19.9 17.0 87 1.3 N 9 13 5 7 1014.9 1014.8 0.0
27/11:00pm 19.9 19.8 16.9 83 1.8 NNE 13 17 7 9 1014.9 1014.8 0.0
27/10:30pm 20.3 20.1 16.7 80 2.2 NNE 13 19 7 10 1014.9 1014.8 0.0
27/10:00pm 20.5 19.8 16.3 77 2.5 NE 15 20 8 11 1014.9 1014.8 0.0
27/09:30pm 20.9 20.0 15.9 73 3.0 NE 15 22 8 12 1014.9 1014.8 0.0
27/09:00pm 21.2 20.0 16.0 72 3.1 NE 17 26 9 14 1014.8 1014.7 0.0
27/08:30pm 21.6 19.8 16.1 71 3.3 NE 20 32 11 17 1014.6 1014.5 0.0
27/08:00pm 21.8 20.7 16.3 71 3.3 NE 17 28 9 15 1014.3 1014.2 0.0
27/07:30pm 22.4 21.0 15.5 65 4.1 NE 17 24 9 13 1014.0 1013.9 0.0
27/07:00pm 23.1 22.0 16.4 66 4.1 NE 17 30 9 16 1013.7 1013.6 0.0
27/06:32pm 23.9 21.9 14.9 57 5.4 ENE 19 28 10 15 1013.5 1013.4 0.0
27/06:30pm 23.9 21.8 14.6 56 5.5 ENE 19 28 10 15 1013.5 1013.4 0.0
27/06:00pm 24.4 22.2 14.8 55 5.7 ENE 20 33 11 18 1013.3 1013.2 0.0
27/05:30pm 24.7 22.2 14.2 52 6.2 ENE 20 32 11 17 1013.3 1013.2 0.0
27/05:00pm 25.3 23.3 15.0 53 6.2 ENE 19 28 10 15 1013.2 1013.1 0.0
27/04:30pm 25.7 24.0 15.7 54 6.1 ENE 19 26 10 14 1013.3 1013.2 0.0
27/04:00pm 25.2 23.2 16.4 58 5.4 E 22 30 12 16 1013.4 1013.3 0.0
27/03:30pm 24.6 22.5 16.1 59 5.2 E 22 30 12 16 1013.6 1013.5 0.0
27/03:00pm 25.4 23.7 15.7 55 5.9 ENE 19 26 10 14 1014.0 1013.9 0.0
27/02:30pm 26.2 25.5 15.3 51 6.6 NNE 13 22 7 12 1014.6 1014.5 0.0
27/02:00pm 26.4 24.2 10.9 38 8.7 N 13 24 7 13 1015.0 1014.9 0.0
27/01:30pm 25.5 23.2 11.7 42 7.9 NW 15 22 8 12 1015.5 1015.4 0.0
27/01:00pm 24.9 23.2 12.5 46 7.1 NNW 13 20 7 11 1016.0 1015.9 0.0
27/12:30pm 24.1 22.5 12.7 49 6.6 NW 13 20 7 11 1016.2 1016.1 0.0
27/12:00pm 23.9 24.0 15.4 59 5.1 NNW 9 15 5 8 1016.7 1016.6 0.0
27/11:30am 23.2 23.0 13.7 55 5.5 WSW 7 15 4 8 1017.3 1017.2 0.0
27/11:00am 22.1 21.3 14.0 60 4.7 WNW 11 17 6 9 1018.1 1018.0 0.0
27/10:30am 21.1 20.1 14.5 66 3.9 NW 13 15 7 8 1018.4 1018.3 0.0
27/10:00am 20.6 20.1 14.9 70 3.3 WNW 11 19 6 10 1018.7 1018.6 0.0
27/09:30am 19.6 18.6 14.6 73 2.9 WNW 13 17 7 9 1018.9 1018.8 0.0
27/09:00am 18.1 17.4 14.4 79 2.1 NW 11 15 6 8 1019.1 1019.0 0.0
27/08:30am 17.5 16.5 14.6 83 1.7 WNW 13 17 7 9 1019.1 1019.0 0.0
27/08:00am 16.1 15.5 14.5 90 0.9 NW 11 15 6 8 1018.9 1018.8 0.0
27/07:30am 14.8 13.7 14.2 96 0.3 WNW 13 17 7 9 1018.8 1018.7 0.0
27/07:00am 13.7 12.8 13.7 100 0.0 NW 11 13 6 7 1018.7 1018.6 0.0
27/06:30am 12.4 11.1 12.4 100 0.0 WNW 11 13 6 7 1018.5 1018.4 0.0
27/06:00am 12.2 10.7 12.0 99 0.1 WNW 11 13 6 7 1018.2 1018.1 0.0
27/05:30am 11.9 11.0 11.3 96 0.3 NNW 7 9 4 5 1018.1 1018.0 0.0
27/05:00am 11.8 12.1 10.9 94 0.5 CALM 0 0 0 0 1017.9 1017.8 0.0
27/04:30am 11.9 11.9 11.1 95 0.4 NE 2 6 1 3 1017.8 1017.7 0.0
27/04:00am 12.3 12.7 11.4 94 0.5 CALM 0 0 0 0 1018.1 1018.0 0.0
27/03:30am 13.0 13.7 12.2 95 0.4 CALM 0 0 0 0 1018.3 1018.2 0.0
27/03:00am 12.1 12.4 11.0 93 0.6 CALM 0 0 0 0 1018.4 1018.3 0.0
27/02:30am 12.4 12.8 11.1 92 0.7 CALM 0 0 0 0 1018.5 1018.4 0.0
27/02:00am 12.9 12.4 12.0 94 0.5 SE 6 7 3 4 1018.5 1018.4 0.0
27/01:30am 12.7 13.1 11.3 91 0.7 CALM 0 0 0 0 1018.7 1018.6 0.0
27/01:00am 13.4 14.1 12.1 92 0.7 CALM 0 0 0 0 1019.1 1019.0 0.0
27/12:30am 13.4 14.1 12.3 93 0.6 CALM 0 4 0 2 1019.2 1019.1 0.0
27/12:00am 12.9 13.4 11.5 91 0.7 CALM 0 0 0 0 1019.4 1019.3 0.0
 
Date/Time
EDT
Temp
°C
App
Temp
°C
Dew
Point
°C
Rel
Hum
%
Delta-T
°C
Wind Press
QNH
hPa
Press
MSL
hPa
Rain since
9am
mm
Dir  Spd
km/h
Gust
km/h
Spd
kts
Gust
kts
26/11:30pm 13.1 13.6 11.7 91 0.7 CALM 0 0 0 0 1019.6 1019.5 0.0
26/11:00pm 13.1 13.5 11.3 89 0.9 CALM 0 6 0 3 1019.9 1019.8 0.0
26/10:30pm 13.5 14.0 11.6 88 1.0 CALM 0 0 0 0 1020.1 1020.0 0.0
26/10:00pm 14.6 15.0 11.4 81 1.7 CALM 0 0 0 0 1020.0 1019.9 0.0
26/09:30pm 16.2 15.8 12.4 78 2.1 E 6 11 3 6 1019.9 1019.8 0.0
26/09:00pm 16.3 15.7 12.3 77 2.2 NE 7 11 4 6 1019.8 1019.7 0.0
26/08:30pm 16.8 15.8 12.3 75 2.5 E 9 13 5 7 1019.4 1019.3 0.0
26/08:00pm 17.2 15.8 12.3 73 2.7 E 11 15 6 8 1018.9 1018.8 0.0
26/07:30pm 17.7 16.0 12.4 71 2.9 ENE 13 17 7 9 1018.8 1018.7 0.0
26/07:00pm 18.2 16.0 12.2 68 3.3 E 15 24 8 13 1018.3 1018.2 0.0
26/06:30pm 18.7 16.2 12.2 66 3.6 E 17 26 9 14 1018.0 1017.9 0.0
26/06:00pm 19.2 15.7 12.2 64 3.9 E 22 30 12 16 1017.6 1017.5 0.0
26/05:30pm 19.2 15.1 11.5 61 4.2 ESE 24 32 13 17 1017.4 1017.3 0.0
26/05:00pm 19.8 15.8 11.8 60 4.4 ESE 24 33 13 18 1017.5 1017.4 0.0
26/04:30pm 19.9 15.8 11.4 58 4.7 ESE 24 32 13 17 1017.0 1016.9 0.0
26/04:00pm 20.5 16.1 11.7 57 4.9 ESE 26 32 14 17 1017.0 1016.9 0.0
26/03:30pm 20.4 16.3 11.6 57 4.9 ESE 24 39 13 21 1017.2 1017.1 0.0
26/03:00pm 20.6 17.0 11.8 57 4.9 ESE 22 32 12 17 1017.4 1017.3 0.0
26/02:30pm 20.4 16.7 11.6 57 4.9 ESE 22 32 12 17 1017.7 1017.6 0.0
26/02:00pm 21.3 18.3 12.7 58 4.9 SE 20 28 11 15 1018.0 1017.9 0.0
26/01:30pm 20.6 18.0 12.1 58 4.8 ESE 17 26 9 14 1018.4 1018.3 0.0
26/01:00pm 20.0 16.2 11.2 57 4.8 SE 22 32 12 17 1018.8 1018.7 0.0
26/12:30pm 20.2 17.2 11.9 59 4.6 SE 19 28 10 15 1019.1 1019.0 0.0
26/12:00pm 19.6 16.1 10.9 57 4.7 SSE 20 30 11 16 1019.5 1019.4 0.0
26/11:30am 19.8 16.8 11.8 60 4.4 SE 19 26 10 14 1019.8 1019.7 0.0
26/11:00am 19.3 16.0 11.6 61 4.2 SE 20 28 11 15 1020.0 1019.9 0.0
26/10:30am 19.7 17.1 12.0 61 4.3 SSE 17 24 9 13 1019.9 1019.8 0.0
26/10:00am 18.7 16.6 11.0 61 4.2 SSE 13 24 7 13 1020.0 1019.9 0.0
26/09:30am 18.4 16.4 11.5 64 3.8 SSE 13 20 7 11 1020.2 1020.1 0.0
26/09:00am 18.9 17.0 11.9 64 3.9 SSE 13 20 7 11 1020.3 1020.2 0.0
26/08:30am 17.8 16.4 12.3 70 3.0 SSW 11 17 6 9 1020.2 1020.1 0.0
26/08:00am 16.9 15.6 12.4 75 2.5 WSW 11 13 6 7 1020.0 1019.9 0.0
26/07:30am 14.7 13.6 11.8 83 1.6 WNW 9 11 5 6 1019.8 1019.7 0.0
26/07:00am 13.0 11.7 11.4 90 0.8 WNW 9 11 5 6 1019.6 1019.5 0.0
26/06:30am 12.3 11.3 10.9 91 0.7 WNW 7 9 4 5 1019.4 1019.3 0.0
26/06:00am 12.3 11.8 10.7 90 0.8 WSW 4 9 2 5 1018.9 1018.8 0.0
26/05:30am 12.6 11.2 10.8 89 0.9 WNW 9 11 5 6 1018.7 1018.6 0.0
26/05:00am 12.5 10.7 10.9 90 0.8 WNW 11 13 6 7 1018.4 1018.3 0.0
26/04:30am 13.4 13.7 10.8 84 1.4 CALM 0 0 0 0 1018.1 1018.0 0.0
26/04:00am 14.0 14.3 10.8 81 1.7 CALM 0 0 0 0 1018.0 1017.9 0.0
26/03:30am 15.1 13.4 9.7 70 2.8 S 9 11 5 6 1017.8 1017.7 0.0
26/03:00am 15.7 13.3 10.0 69 3.0 SSE 13 19 7 10 1017.7 1017.6 0.0
26/02:30am 15.8 13.5 10.6 71 2.8 S 13 15 7 8 1017.8 1017.7 0.0
26/02:00am 15.9 13.7 10.7 71 2.8 S 13 17 7 9 1017.8 1017.7 0.0
26/01:30am 16.9 13.4 11.0 68 3.2 SSE 20 26 11 14 1017.8 1017.7 0.0
26/01:00am 17.1 15.2 11.8 71 2.9 SSE 13 22 7 12 1018.1 1018.0 0.0
26/12:30am 16.2 14.7 11.8 75 2.4 SE 11 13 6 7 1018.2 1018.1 0.0
26/12:00am 16.4 14.4 11.6 73 2.6 SSE 13 19 7 10 1018.1 1018.0 0.0
 
Date/Time
EDT
Temp
°C
App
Temp
°C
Dew
Point
°C
Rel
Hum
%
Delta-T
°C
Wind Press
QNH
hPa
Press
MSL
hPa
Rain since
9am
mm
Dir  Spd
km/h
Gust
km/h
Spd
kts
Gust
kts
25/11:30pm 16.9 14.1 11.2 69 3.1 SSE 17 22 9 12 1018.1 1018.0 0.0
25/11:00pm 17.6 15.3 11.6 68 3.3 SSE 15 22 8 12 1018.0 1017.9 0.0
25/10:30pm 17.5 15.7 12.2 71 2.9 SSE 13 15 7 8 1017.7 1017.6 0.0
25/10:00pm 16.6 15.0 12.8 78 2.1 SE 13 15 7 8 1017.3 1017.2 0.0
25/09:30pm 16.6 15.0 12.8 78 2.1 SE 13 17 7 9 1016.9 1016.8 0.0
25/09:00pm 16.1 14.2 11.9 76 2.3 SE 13 17 7 9 1016.5 1016.4 0.0
25/08:30pm 16.9 15.1 11.0 68 3.2 ESE 11 13 6 7 1016.1 1016.0 0.0
25/08:00pm 16.9 15.2 11.2 69 3.1 SE 11 15 6 8 1015.6 1015.5 0.0
25/07:30pm 17.8 15.7 11.1 65 3.6 ESE 13 17 7 9 1015.2 1015.1 0.0
25/07:00pm 18.6 15.8 11.2 62 4.0 ESE 17 22 9 12 1014.8 1014.7 0.0
25/06:30pm 19.3 15.8 10.8 58 4.6 ESE 20 28 11 15 1014.4 1014.3 0.0
25/06:00pm 19.9 16.1 11.1 57 4.8 ESE 22 30 12 16 1014.1 1014.0 0.0
25/05:30pm 20.6 15.7 11.2 55 5.2 SE 28 33 15 18 1013.8 1013.7 0.0
25/05:00pm 20.5 15.4 10.6 53 5.4 ESE 28 35 15 19 1013.5 1013.4 0.0
25/04:30pm 20.6 15.1 10.7 53 5.4 ESE 30 41 16 22 1013.1 1013.0 0.0
25/04:00pm 20.8 15.8 10.9 53 5.4 ESE 28 35 15 19 1013.1 1013.0 0.0
25/03:30pm 23.8 18.0 4.2 28 9.7 NW 24 39 13 21 1012.8 1012.7 0.0
25/03:00pm 24.0 18.4 5.4 30 9.4 NW 24 33 13 18 1013.0 1012.9 0.0
25/02:30pm 23.5 18.7 4.9 30 9.3 NW 19 30 10 16 1013.3 1013.2 0.0
25/02:00pm 23.8 18.6 5.7 31 9.2 NW 22 32 12 17 1013.7 1013.6 0.0
25/01:30pm 23.0 18.4 6.7 35 8.4 NW 20 35 11 19 1014.1 1014.0 0.0
25/01:00pm 23.4 18.5 6.7 34 8.6 WNW 22 33 12 18 1014.5 1014.4 0.0
25/12:30pm 22.0 16.8 5.4 34 8.3 WNW 22 37 12 20 1014.7 1014.6 0.0
25/12:00pm 21.9 17.2 6.2 36 7.9 WNW 20 37 11 20 1015.2 1015.1 0.0
25/11:30am 21.0 16.4 6.5 39 7.3 NW 20 32 11 17 1015.7 1015.6 0.0
25/11:00am 20.5 17.1 6.1 39 7.2 WNW 13 22 7 12 1016.0 1015.9 0.0
25/10:30am 20.0 17.1 9.6 51 5.5 W 15 20 8 11 1016.4 1016.3 0.0
25/10:00am 19.6 17.6 12.6 64 3.9 NW 15 20 8 11 1016.6 1016.5 0.0
25/09:30am 19.0 16.9 12.3 65 3.7 WNW 15 19 8 10 1016.7 1016.6 0.0
25/09:00am 18.1 16.7 12.3 69 3.2 WNW 11 19 6 10 1016.7 1016.6 0.2
25/08:30am 17.6 16.0 12.9 74 2.6 WNW 13 15 7 8 1016.5 1016.4 0.2
25/08:00am 16.1 15.5 13.4 84 1.5 NW 9 11 5 6 1016.5 1016.4 0.2
25/07:30am 14.5 13.5 13.5 94 0.6 WNW 11 13 6 7 1016.2 1016.1 0.2

Latest Capital City Observations: Canberra | Sydney | Melbourne | Brisbane | Adelaide | Perth | Hobart | Darwin

Other formats

Comma delimited format used in spreadsheet applications
http://www.bom.gov.au/fwo/IDN60901/IDN60901.94776.axf

JavaScript Object Notation format (JSON) in row-major order
http://www.bom.gov.au/fwo/IDN60901/IDN60901.94776.json

Data quality

Most of these data are generated automatically and are frequently updated. Quality checks on data are not normally performed. It is possible for incorrect values to appear. Refer to information at About Latest Weather Observations and please check the disclaimer before using these data.